createdAt,value
2022-10-04T00:00:23.518Z,5.70
2022-10-04T00:02:50.146Z,5.70
2022-10-04T00:05:18.587Z,5.70
2022-10-04T00:07:47.015Z,5.70
2022-10-04T00:10:29.417Z,5.70
2022-10-04T00:13:00.136Z,5.70
2022-10-04T00:15:33.589Z,5.80
2022-10-04T00:18:00.216Z,5.70
2022-10-04T00:20:45.633Z,5.70
2022-10-04T00:23:24.574Z,5.60
2022-10-04T00:25:55.792Z,5.50
2022-10-04T00:28:25.757Z,5.40
2022-10-04T00:31:07.167Z,5.40
2022-10-04T00:33:54.120Z,5.40
2022-10-04T00:36:26.399Z,5.40
2022-10-04T00:39:02.678Z,5.40
2022-10-04T00:41:34.241Z,5.40
2022-10-04T00:44:01.673Z,5.50
2022-10-04T00:46:29.536Z,5.40
2022-10-04T00:49:01.671Z,5.30
2022-10-04T00:51:32.726Z,5.30
2022-10-04T00:54:02.493Z,5.20
2022-10-04T00:56:51.408Z,5.20
2022-10-04T00:59:27.247Z,7.40
2022-10-04T01:01:57.235Z,5.20
2022-10-04T01:04:35.991Z,5.30
2022-10-04T01:07:03.393Z,5.20
2022-10-04T01:12:42.142Z,5.30
2022-10-04T01:15:11.640Z,5.40
2022-10-04T01:17:38.332Z,5.40
2022-10-04T01:20:24.901Z,5.40
2022-10-04T01:22:51.512Z,5.40
2022-10-04T01:25:36.755Z,5.40
2022-10-04T01:28:03.525Z,5.30
2022-10-04T01:30:30.170Z,5.30
2022-10-04T01:32:56.913Z,5.20
2022-10-04T01:35:23.513Z,5.20
2022-10-04T01:37:50.163Z,5.00
2022-10-04T01:40:16.887Z,5.00
2022-10-04T01:42:50.122Z,5.00
2022-10-04T01:45:25.768Z,4.80
2022-10-04T01:47:55.099Z,4.70
2022-10-04T01:50:29.296Z,4.70
2022-10-04T01:53:14.869Z,5.40
2022-10-04T01:55:44.125Z,4.70
2022-10-04T01:58:13.448Z,4.70
2022-10-04T02:00:46.299Z,4.70
2022-10-04T02:03:22.218Z,4.70
2022-10-04T02:05:54.274Z,4.70
2022-10-04T02:08:26.456Z,4.70
2022-10-04T02:10:54.900Z,4.70
2022-10-04T02:13:22.375Z,6.10
2022-10-04T02:15:49.662Z,4.60
2022-10-04T02:18:20.705Z,4.60
2022-10-04T02:20:48.541Z,4.50
2022-10-04T02:23:16.729Z,5.80
2022-10-04T02:25:43.415Z,4.50
2022-10-04T02:28:11.094Z,6.00
2022-10-04T02:30:38.777Z,4.50
2022-10-04T02:33:06.148Z,4.50
2022-10-04T02:35:46.093Z,4.50
2022-10-04T02:38:12.684Z,4.50
2022-10-04T02:40:44.711Z,4.50
2022-10-04T02:43:16.818Z,5.70
2022-10-04T02:45:48.822Z,4.60
2022-10-04T02:48:18.292Z,4.60
2022-10-04T02:50:47.204Z,4.50
2022-10-04T02:53:19.856Z,4.40
2022-10-04T02:55:47.617Z,4.30
2022-10-04T02:58:15.639Z,5.70
2022-10-04T03:00:49.992Z,4.30
2022-10-04T03:03:28.085Z,4.30
2022-10-04T03:06:20.807Z,4.30
2022-10-04T03:08:47.402Z,4.40
2022-10-04T03:11:15.941Z,4.50
2022-10-04T03:13:46.435Z,4.60
2022-10-04T03:16:13.500Z,4.60
2022-10-04T03:18:40.523Z,4.70
2022-10-04T03:21:08.254Z,4.70
2022-10-04T03:23:35.319Z,4.70
2022-10-04T03:26:03.902Z,4.70
2022-10-04T03:28:30.594Z,4.60
2022-10-04T03:30:58.082Z,4.60
2022-10-04T03:33:26.215Z,4.70
2022-10-04T03:35:54.997Z,4.70
2022-10-04T03:38:23.033Z,6.30
2022-10-04T03:40:53.191Z,4.90
2022-10-04T03:43:22.182Z,4.90
2022-10-04T03:45:49.261Z,4.90
2022-10-04T03:48:22.724Z,4.90
2022-10-04T03:50:49.575Z,4.90
2022-10-04T03:53:26.712Z,4.80
2022-10-04T03:55:53.590Z,4.90
2022-10-04T03:58:20.631Z,5.00
2022-10-04T04:01:01.825Z,5.00
2022-10-04T04:03:29.739Z,5.00
2022-10-04T04:05:59.867Z,5.10
2022-10-04T04:08:33.770Z,5.10
2022-10-04T04:11:02.985Z,5.10
2022-10-04T04:13:31.217Z,5.30
2022-10-04T04:16:00.542Z,5.20
2022-10-04T04:18:32.236Z,5.20
2022-10-04T04:21:01.162Z,5.20
2022-10-04T04:23:33.109Z,5.30
2022-10-04T04:26:20.019Z,5.30
2022-10-04T04:28:49.093Z,5.40
2022-10-04T04:31:15.718Z,5.40
2022-10-04T04:33:48.851Z,5.40
2022-10-04T04:36:17.056Z,5.30
2022-10-04T04:39:02.181Z,6.20
2022-10-04T04:41:31.273Z,6.20
2022-10-04T04:43:58.141Z,5.40
2022-10-04T04:46:27.906Z,5.30
2022-10-04T04:49:01.229Z,5.30
2022-10-04T04:51:28.679Z,5.30
2022-10-04T04:53:56.228Z,5.30
2022-10-04T04:56:25.291Z,5.20
2022-10-04T04:58:52.667Z,5.30
2022-10-04T05:01:33.679Z,5.30
2022-10-04T05:04:09.327Z,5.20
2022-10-04T05:06:37.158Z,5.20
2022-10-04T05:09:04.405Z,5.20
2022-10-04T05:11:32.827Z,5.30
2022-10-04T05:14:01.182Z,5.30
2022-10-04T05:16:30.676Z,5.40
2022-10-04T05:18:58.467Z,5.30
2022-10-04T05:21:29.646Z,5.30
2022-10-04T05:23:57.794Z,5.20
2022-10-04T05:26:29.144Z,5.20
2022-10-04T05:28:59.364Z,5.10
2022-10-04T05:31:34.019Z,5.10
2022-10-04T05:34:00.751Z,5.10
2022-10-04T05:36:40.601Z,5.00
2022-10-04T05:39:16.754Z,5.00
2022-10-04T05:41:58.214Z,5.00
2022-10-04T05:44:48.084Z,5.00
2022-10-04T05:47:15.071Z,5.00
2022-10-04T05:49:46.552Z,5.00
2022-10-04T05:52:15.071Z,6.00
2022-10-04T05:54:41.741Z,6.60
2022-10-04T05:57:15.829Z,5.00
2022-10-04T06:00:04.423Z,5.10
2022-10-04T06:02:51.260Z,5.10
2022-10-04T06:05:28.178Z,5.10
2022-10-04T06:08:02.098Z,5.10
2022-10-04T06:10:47.299Z,5.10
2022-10-04T06:13:32.824Z,5.10
2022-10-04T06:16:15.228Z,5.20
2022-10-04T06:18:41.929Z,5.20
2022-10-04T06:21:23.923Z,5.20
2022-10-04T06:23:53.647Z,5.20
2022-10-04T06:26:27.816Z,5.40
2022-10-04T06:29:05.101Z,5.50
2022-10-04T06:31:31.725Z,5.50
2022-10-04T06:34:17.680Z,5.60
2022-10-04T06:36:44.331Z,5.60
2022-10-04T06:39:26.873Z,5.90
2022-10-04T06:42:06.286Z,5.70
2022-10-04T06:44:48.433Z,5.80
2022-10-04T06:47:27.768Z,5.80
2022-10-04T06:49:56.773Z,5.90
2022-10-04T06:52:26.517Z,6.00
2022-10-04T06:54:56.195Z,6.10
2022-10-04T06:57:38.109Z,6.20
2022-10-04T07:00:08.725Z,6.20
2022-10-04T07:02:54.026Z,6.30
2022-10-04T07:05:32.694Z,6.40
2022-10-04T07:08:31.301Z,6.30
2022-10-04T07:11:06.510Z,6.20
2022-10-04T07:13:40.318Z,6.40
2022-10-04T07:16:10.277Z,6.40
2022-10-04T07:18:47.656Z,6.40
2022-10-04T07:21:15.843Z,6.40
2022-10-04T07:23:53.396Z,6.50
2022-10-04T07:26:23.799Z,6.60
2022-10-04T07:29:09.652Z,6.70
2022-10-04T07:31:36.855Z,7.40
2022-10-04T07:34:15.396Z,6.80
2022-10-04T07:36:45.811Z,6.80
2022-10-04T07:39:21.152Z,6.90
2022-10-04T07:41:50.467Z,6.90
2022-10-04T07:44:17.100Z,7.00
2022-10-04T07:46:52.806Z,7.00
2022-10-04T07:49:20.973Z,7.10
2022-10-04T07:51:50.533Z,7.10
2022-10-04T07:54:17.337Z,7.20
2022-10-04T07:57:00.064Z,7.20
2022-10-04T07:59:34.929Z,7.30
2022-10-04T08:02:24.007Z,7.50
2022-10-04T08:04:52.241Z,7.50
2022-10-04T08:07:27.041Z,7.50
2022-10-04T08:10:07.071Z,7.50
2022-10-04T08:12:42.851Z,7.60
2022-10-04T08:15:09.462Z,7.70
2022-10-04T08:17:51.189Z,7.80
2022-10-04T08:20:33.065Z,7.90
2022-10-04T08:23:06.452Z,8.10
2022-10-04T08:25:39.165Z,8.20
2022-10-04T08:28:33.802Z,8.20
2022-10-04T08:31:06.805Z,8.30
2022-10-04T08:33:36.582Z,8.40
2022-10-04T08:36:11.627Z,8.50
2022-10-04T08:38:46.731Z,8.50
2022-10-04T08:41:33.165Z,8.60
2022-10-04T08:44:18.510Z,8.60
2022-10-04T08:47:07.553Z,8.70
2022-10-04T08:49:34.112Z,8.80
2022-10-04T08:52:19.544Z,8.90
2022-10-04T08:55:05.497Z,8.90
2022-10-04T08:57:44.178Z,9.00
2022-10-04T09:00:26.476Z,9.10
2022-10-04T09:03:11.985Z,9.10
2022-10-04T09:05:38.783Z,9.30
2022-10-04T09:08:24.218Z,9.40
2022-10-04T09:11:10.445Z,9.50
2022-10-04T09:13:37.103Z,9.70
2022-10-04T09:16:11.081Z,10.40
2022-10-04T09:18:49.929Z,10.10
2022-10-04T09:21:35.229Z,10.20
2022-10-04T09:24:20.411Z,10.30
2022-10-04T09:27:05.504Z,10.40
2022-10-04T09:29:52.400Z,10.60
2022-10-04T09:32:26.604Z,10.80
2022-10-04T09:35:12.071Z,10.90
2022-10-04T09:37:47.862Z,11.10
2022-10-04T09:40:34.612Z,11.20
2022-10-04T09:43:20.081Z,11.30
2022-10-04T09:45:49.746Z,11.40
2022-10-04T09:48:25.266Z,11.50
2022-10-04T09:51:07.918Z,11.70
2022-10-04T09:53:46.496Z,11.80
2022-10-04T09:56:27.467Z,11.90
2022-10-04T09:58:54.182Z,12.00
2022-10-04T10:01:20.768Z,13.10
2022-10-04T10:03:58.881Z,12.30
2022-10-04T10:06:34.778Z,12.30
2022-10-04T10:09:01.340Z,12.20
2022-10-04T10:12:06.259Z,12.20
2022-10-04T10:14:33.609Z,12.30
2022-10-04T10:17:09.625Z,13.70
2022-10-04T10:19:54.865Z,12.50
2022-10-04T10:22:21.686Z,12.60
2022-10-04T10:25:07.668Z,13.20
2022-10-04T10:27:34.261Z,12.80
2022-10-04T10:30:19.613Z,12.90
2022-10-04T10:32:52.468Z,13.00
2022-10-04T10:35:19.064Z,13.10
2022-10-04T10:38:04.906Z,13.10
2022-10-04T10:40:35.303Z,13.20
2022-10-04T10:43:20.858Z,13.30
2022-10-04T10:45:50.367Z,13.40
2022-10-04T10:48:28.980Z,13.50
2022-10-04T10:50:58.614Z,13.60
2022-10-04T10:53:45.201Z,13.80
2022-10-04T10:56:18.949Z,13.90
2022-10-04T10:58:45.488Z,14.10
2022-10-04T11:01:31.099Z,14.20
2022-10-04T11:03:58.223Z,14.30
2022-10-04T11:06:54.426Z,14.40
2022-10-04T11:09:42.516Z,14.40
2022-10-04T11:12:29.420Z,14.50
2022-10-04T11:15:28.592Z,14.70
2022-10-04T11:18:15.192Z,14.70
2022-10-04T11:21:00.572Z,14.70
2022-10-04T11:23:46.065Z,14.80
2022-10-04T11:26:12.580Z,14.90
2022-10-04T11:28:39.331Z,15.00
2022-10-04T11:31:32.589Z,16.20
2022-10-04T11:34:16.613Z,15.00
2022-10-04T11:36:48.570Z,15.10
2022-10-04T11:39:34.548Z,15.20
2022-10-04T11:42:14.059Z,15.20
2022-10-04T11:45:00.566Z,15.30
2022-10-04T11:47:41.615Z,15.40
2022-10-04T11:50:27.167Z,15.50
2022-10-04T11:53:03.106Z,15.60
2022-10-04T11:55:54.067Z,15.50
2022-10-04T11:58:27.992Z,15.50
2022-10-04T12:01:16.765Z,15.50
2022-10-04T12:04:03.419Z,15.60
2022-10-04T12:07:02.869Z,15.60
2022-10-04T12:10:05.053Z,15.70
2022-10-04T12:12:37.497Z,15.80
2022-10-04T12:15:20.298Z,15.90
2022-10-04T12:17:59.176Z,15.90
2022-10-04T12:20:41.426Z,16.00
2022-10-04T12:23:24.110Z,16.00
2022-10-04T12:25:53.824Z,16.00
2022-10-04T12:28:30.130Z,16.10
2022-10-04T12:31:06.254Z,16.20
2022-10-04T12:33:35.946Z,16.30
2022-10-04T12:36:17.514Z,16.30
2022-10-04T12:38:53.377Z,16.30
2022-10-04T12:41:38.787Z,16.30
2022-10-04T12:44:18.784Z,16.30
2022-10-04T12:46:53.039Z,16.30
2022-10-04T12:49:25.952Z,16.90
2022-10-04T12:51:58.873Z,16.30
2022-10-04T12:54:34.804Z,16.30
2022-10-04T12:57:10.717Z,16.30
2022-10-04T12:59:37.366Z,16.30
2022-10-04T13:02:27.444Z,16.40
2022-10-04T13:05:07.877Z,16.50
2022-10-04T13:07:43.756Z,16.50
2022-10-04T13:10:24.219Z,16.50
2022-10-04T13:13:08.821Z,16.50
2022-10-04T13:18:53.742Z,16.60
2022-10-04T13:21:38.712Z,16.50
2022-10-04T13:24:29.327Z,16.60
2022-10-04T13:27:02.023Z,16.60
2022-10-04T13:29:32.931Z,16.60
2022-10-04T13:31:59.557Z,16.50
2022-10-04T13:34:55.632Z,16.60
2022-10-04T13:37:32.990Z,16.60
2022-10-04T13:39:59.730Z,16.60
2022-10-04T13:42:41.660Z,17.40
2022-10-04T13:45:11.301Z,16.70
2022-10-04T13:47:46.437Z,16.60
2022-10-04T13:50:28.896Z,16.70
2022-10-04T13:53:33.148Z,16.70
2022-10-04T13:56:37.228Z,16.70
2022-10-04T13:59:07.055Z,16.80
2022-10-04T14:01:33.674Z,16.80
2022-10-04T14:04:26.455Z,16.80
2022-10-04T14:06:53.003Z,16.80
2022-10-04T14:09:38.444Z,17.10
2022-10-04T14:12:25.873Z,16.80
2022-10-04T14:15:12.179Z,16.80
2022-10-04T14:17:44.643Z,16.80
2022-10-04T14:20:26.601Z,16.80
2022-10-04T14:23:02.393Z,16.80
2022-10-04T14:25:35.098Z,16.80
2022-10-04T14:28:01.831Z,16.80
2022-10-04T14:30:28.494Z,16.80
2022-10-04T14:33:10.145Z,16.80
2022-10-04T14:35:42.926Z,16.80
2022-10-04T14:38:09.700Z,16.70
2022-10-04T14:40:55.083Z,16.70
2022-10-04T14:43:44.913Z,16.60
2022-10-04T14:46:22.618Z,16.70
2022-10-04T14:49:11.285Z,16.70
2022-10-04T14:51:50.360Z,16.70
2022-10-04T14:54:23.042Z,16.70
2022-10-04T14:56:58.138Z,16.70
2022-10-04T14:59:48.011Z,16.70
2022-10-04T15:02:28.684Z,16.70
2022-10-04T15:05:15.571Z,16.70
2022-10-04T15:07:46.986Z,16.70
2022-10-04T15:10:19.118Z,16.70
2022-10-04T15:15:40.595Z,18.20
2022-10-04T15:18:22.076Z,16.60
2022-10-04T15:20:57.204Z,16.60
2022-10-04T15:23:31.291Z,16.70
2022-10-04T15:26:10.293Z,16.50
2022-10-04T15:28:42.806Z,16.50
2022-10-04T15:31:39.097Z,16.50
2022-10-04T15:34:34.883Z,16.40
2022-10-04T15:37:08.249Z,16.40
2022-10-04T15:39:57.313Z,16.30
2022-10-04T15:42:26.878Z,16.30
2022-10-04T15:44:59.637Z,16.30
2022-10-04T15:47:30.981Z,16.30
2022-10-04T15:50:10.974Z,16.20
2022-10-04T15:52:43.889Z,16.20
2022-10-04T15:55:16.467Z,16.10
2022-10-04T15:57:46.180Z,16.10
2022-10-04T16:00:13.407Z,16.10
2022-10-04T16:03:00.511Z,16.00
2022-10-04T16:05:32.447Z,16.00
2022-10-04T16:08:25.575Z,16.00
2022-10-04T16:10:58.482Z,15.90
2022-10-04T16:13:28.475Z,15.80
2022-10-04T16:16:30.856Z,15.80
2022-10-04T16:19:09.937Z,15.70
2022-10-04T16:21:48.939Z,15.60
2022-10-04T16:24:18.622Z,15.60
2022-10-04T16:26:51.345Z,15.50
2022-10-04T16:29:18.350Z,15.50
2022-10-04T16:31:45.001Z,15.40
2022-10-04T16:34:14.669Z,16.30
2022-10-04T16:37:05.213Z,15.20
2022-10-04T16:39:58.756Z,15.20
2022-10-04T16:42:44.046Z,15.00
2022-10-04T16:45:10.977Z,14.90
2022-10-04T16:47:50.595Z,17.30
2022-10-04T16:50:37.121Z,14.70
2022-10-04T16:53:22.563Z,14.60
2022-10-04T16:55:49.096Z,14.50
2022-10-04T16:58:27.909Z,14.40
2022-10-04T17:01:21.750Z,14.30
2022-10-04T17:03:51.496Z,14.20
2022-10-04T17:06:25.521Z,15.70
2022-10-04T17:09:11.654Z,14.00
2022-10-04T17:11:42.214Z,13.80
2022-10-04T17:14:27.936Z,14.90
2022-10-04T17:16:58.036Z,13.60
2022-10-04T17:19:32.833Z,13.60
2022-10-04T17:22:05.899Z,13.50
2022-10-04T17:24:41.284Z,13.50
2022-10-04T17:27:26.628Z,13.40
2022-10-04T17:29:53.728Z,13.30
2022-10-04T17:32:29.600Z,13.30
2022-10-04T17:35:02.314Z,13.10
2022-10-04T17:37:38.207Z,13.00
2022-10-04T17:40:10.184Z,12.80
2022-10-04T17:42:55.433Z,12.80
2022-10-04T17:45:40.781Z,12.70
2022-10-04T17:48:37.721Z,12.50
2022-10-04T17:51:22.829Z,12.50
2022-10-04T17:54:10.801Z,12.50
2022-10-04T17:56:45.426Z,12.20
2022-10-04T17:59:15.277Z,12.10
2022-10-04T18:01:51.908Z,13.00
2022-10-04T18:04:20.136Z,11.90
2022-10-04T18:07:09.734Z,13.20
2022-10-04T18:09:45.822Z,11.60
2022-10-04T18:12:15.332Z,11.50
2022-10-04T18:14:46.066Z,12.30
2022-10-04T18:17:36.119Z,11.50
2022-10-04T18:20:24.947Z,11.50
2022-10-04T18:23:14.937Z,11.50
2022-10-04T18:25:41.735Z,11.50
2022-10-04T18:28:08.461Z,11.50
2022-10-04T18:30:54.118Z,12.70
2022-10-04T18:33:26.738Z,11.80
2022-10-04T18:36:12.384Z,11.30
2022-10-04T18:38:40.916Z,11.20
2022-10-04T18:41:20.891Z,11.20
2022-10-04T18:43:51.671Z,11.10
2022-10-04T18:46:22.723Z,12.40
2022-10-04T18:48:54.412Z,11.10
2022-10-04T18:51:23.994Z,11.10
2022-10-04T18:54:10.891Z,11.00
2022-10-04T18:56:56.231Z,11.00
2022-10-04T18:59:48.639Z,10.80
2022-10-04T19:02:25.624Z,10.80
2022-10-04T19:05:13.502Z,10.80
2022-10-04T19:07:43.011Z,10.80
2022-10-04T19:10:09.608Z,10.80
2022-10-04T19:12:43.769Z,12.10
2022-10-04T19:15:22.190Z,10.90
2022-10-04T19:18:01.756Z,10.90
2022-10-04T19:20:31.313Z,10.80
2022-10-04T19:23:17.575Z,10.70
2022-10-04T19:26:09.949Z,10.50
2022-10-04T19:28:35.418Z,10.40
2022-10-04T19:31:14.110Z,10.40
2022-10-04T19:33:40.797Z,10.40
2022-10-04T19:36:23.471Z,11.60
2022-10-04T19:38:56.317Z,10.60
2022-10-04T19:41:38.154Z,10.60
2022-10-04T19:44:23.319Z,10.60
2022-10-04T19:46:55.958Z,10.70
2022-10-04T19:49:37.734Z,10.70
2022-10-04T19:52:23.178Z,10.70
2022-10-04T19:54:57.073Z,10.70
2022-10-04T19:57:30.028Z,10.60
2022-10-04T19:59:56.660Z,10.60
2022-10-04T20:02:23.287Z,10.60
2022-10-04T20:04:51.178Z,10.50
2022-10-04T20:07:23.304Z,11.30
2022-10-04T20:09:51.564Z,10.60
2022-10-04T20:12:29.310Z,10.60
2022-10-04T20:15:14.820Z,10.60
2022-10-04T20:17:42.360Z,10.60
2022-10-04T20:20:09.106Z,10.60
2022-10-04T20:22:51.672Z,11.00
2022-10-04T20:25:37.134Z,10.50
2022-10-04T20:28:03.909Z,10.60
2022-10-04T20:30:52.144Z,11.90
2022-10-04T20:33:34.111Z,10.60
2022-10-04T20:36:01.758Z,10.50
2022-10-04T20:38:43.927Z,10.50
2022-10-04T20:41:28.567Z,10.50
2022-10-04T20:43:56.913Z,10.50
2022-10-04T20:46:24.478Z,10.60
2022-10-04T20:48:53.630Z,10.50
2022-10-04T20:51:22.661Z,10.50
2022-10-04T20:53:52.414Z,11.40
2022-10-04T20:56:24.549Z,11.80
2022-10-04T20:58:51.973Z,10.40
2022-10-04T21:01:37.762Z,10.60
2022-10-04T21:04:35.340Z,10.40
2022-10-04T21:07:02.847Z,10.30
2022-10-04T21:09:31.113Z,10.30
2022-10-04T21:11:58.554Z,10.20
2022-10-04T21:14:26.240Z,10.10
2022-10-04T21:16:57.473Z,10.70
2022-10-04T21:19:32.923Z,10.90
2022-10-04T21:22:03.960Z,10.10
2022-10-04T21:24:53.069Z,10.10
2022-10-04T21:27:28.797Z,10.10
2022-10-04T21:29:55.667Z,10.10
2022-10-04T21:32:23.005Z,10.10
2022-10-04T21:34:54.093Z,10.10
2022-10-04T21:37:21.426Z,10.30
2022-10-04T21:39:48.070Z,10.80
2022-10-04T21:42:14.753Z,10.10
2022-10-04T21:44:41.387Z,10.00
2022-10-04T21:47:08.062Z,11.10
2022-10-04T21:49:34.682Z,10.00
2022-10-04T21:52:01.412Z,10.00
2022-10-04T21:54:28.019Z,10.10
2022-10-04T21:56:54.764Z,10.10
2022-10-04T21:59:21.466Z,10.10
2022-10-04T22:01:48.232Z,11.10
2022-10-04T22:04:14.891Z,10.20
2022-10-04T22:06:41.538Z,10.80
2022-10-04T22:09:08.399Z,11.40
2022-10-04T22:11:35.271Z,10.20
2022-10-04T22:14:01.929Z,10.10
2022-10-04T22:16:28.631Z,10.10
2022-10-04T22:18:55.471Z,10.10
2022-10-04T22:21:22.093Z,10.60
2022-10-04T22:23:48.729Z,9.90
2022-10-04T22:26:16.980Z,9.80
2022-10-04T22:28:45.067Z,9.80
2022-10-04T22:31:15.409Z,9.80
2022-10-04T22:33:43.489Z,9.70
2022-10-04T22:36:13.125Z,11.50
2022-10-04T22:38:40.464Z,9.70
2022-10-04T22:41:11.582Z,10.30
2022-10-04T22:43:38.325Z,9.70
2022-10-04T22:46:05.165Z,9.80
2022-10-04T22:48:31.910Z,9.70
2022-10-04T22:50:58.540Z,10.60
2022-10-04T22:53:25.133Z,9.70
2022-10-04T22:55:52.196Z,10.90
2022-10-04T22:58:21.169Z,10.50
2022-10-04T23:00:47.890Z,9.90
2022-10-04T23:03:21.007Z,9.80
2022-10-04T23:05:47.643Z,10.00
2022-10-04T23:08:14.997Z,9.90
2022-10-04T23:10:41.598Z,9.90
2022-10-04T23:13:08.294Z,9.90
2022-10-04T23:15:35.001Z,10.70
2022-10-04T23:18:01.778Z,10.00
2022-10-04T23:20:29.196Z,11.50
2022-10-04T23:22:55.837Z,9.80
2022-10-04T23:25:29.183Z,9.70
2022-10-04T23:28:00.937Z,9.70
2022-10-04T23:30:27.617Z,9.70
2022-10-04T23:32:57.183Z,9.70
2022-10-04T23:35:25.487Z,10.10
2022-10-04T23:37:52.671Z,9.80
2022-10-04T23:40:20.691Z,9.70
2022-10-04T23:42:48.759Z,9.60
2022-10-04T23:45:20.097Z,10.20
2022-10-04T23:47:48.250Z,9.60
2022-10-04T23:50:22.859Z,9.50
2022-10-04T23:52:50.390Z,9.60
2022-10-04T23:55:19.212Z,10.10
2022-10-04T23:57:46.047Z,10.40
